sensor_id;sensor_type;location;lat;lon;timestamp;temperature;humidity
44069;DHT22;29738;51.234;5.484;2023-06-14T00:36:33;17.20;99.90
44069;DHT22;29738;51.234;5.484;2023-06-14T00:39:00;16.90;99.90
44069;DHT22;29738;51.234;5.484;2023-06-14T00:41:25;16.70;99.90
44069;DHT22;29738;51.234;5.484;2023-06-14T00:43:52;16.70;99.90
44069;DHT22;29738;51.234;5.484;2023-06-14T01:38:06;16.10;99.90
44069;DHT22;29738;51.234;5.484;2023-06-14T01:40:32;16.20;99.90
44069;DHT22;29738;51.234;5.484;2023-06-14T01:42:58;16.00;99.90
44069;DHT22;29738;51.234;5.484;2023-06-14T01:45:26;16.00;99.90
44069;DHT22;29738;51.234;5.484;2023-06-14T01:47:52;16.10;99.90
44069;DHT22;29738;51.234;5.484;2023-06-14T01:50:21;16.00;99.90
44069;DHT22;29738;51.234;5.484;2023-06-14T01:52:46;16.00;99.90
44069;DHT22;29738;51.234;5.484;2023-06-14T01:55:12;16.00;99.90
44069;DHT22;29738;51.234;5.484;2023-06-14T01:57:38;15.90;99.90
44069;DHT22;29738;51.234;5.484;2023-06-14T02:00:04;15.90;99.90
44069;DHT22;29738;51.234;5.484;2023-06-14T02:02:33;15.90;99.90
44069;DHT22;29738;51.234;5.484;2023-06-14T02:04:59;15.90;99.90
44069;DHT22;29738;51.234;5.484;2023-06-14T02:07:24;15.80;99.90
44069;DHT22;29738;51.234;5.484;2023-06-14T02:09:50;15.80;99.90
44069;DHT22;29738;51.234;5.484;2023-06-14T02:12:16;15.70;99.90
44069;DHT22;29738;51.234;5.484;2023-06-14T02:14:42;15.70;99.90
44069;DHT22;29738;51.234;5.484;2023-06-14T02:17:07;15.60;99.90
44069;DHT22;29738;51.234;5.484;2023-06-14T02:19:37;15.60;99.90
44069;DHT22;29738;51.234;5.484;2023-06-14T02:22:02;15.60;99.90
44069;DHT22;29738;51.234;5.484;2023-06-14T02:24:28;15.60;99.90
44069;DHT22;29738;51.234;5.484;2023-06-14T02:26:54;15.50;99.90
44069;DHT22;29738;51.234;5.484;2023-06-14T02:29:20;15.50;99.90
44069;DHT22;29738;51.234;5.484;2023-06-14T02:31:46;15.40;99.90
44069;DHT22;29738;51.234;5.484;2023-06-14T02:34:13;15.20;99.90
44069;DHT22;29738;51.234;5.484;2023-06-14T02:36:39;15.30;99.90
44069;DHT22;29738;51.234;5.484;2023-06-14T02:39:10;15.40;99.90
44069;DHT22;29738;51.234;5.484;2023-06-14T02:41:35;15.30;99.90
44069;DHT22;29738;51.234;5.484;2023-06-14T02:44:01;15.30;99.90
44069;DHT22;29738;51.234;5.484;2023-06-14T02:46:26;15.20;99.90
44069;DHT22;29738;51.234;5.484;2023-06-14T02:48:52;15.10;99.90
44069;DHT22;29738;51.234;5.484;2023-06-14T02:51:18;15.20;99.90
44069;DHT22;29738;51.234;5.484;2023-06-14T02:53:43;15.10;99.90
44069;DHT22;29738;51.234;5.484;2023-06-14T02:56:09;15.10;99.90
44069;DHT22;29738;51.234;5.484;2023-06-14T02:58:38;15.10;99.90
44069;DHT22;29738;51.234;5.484;2023-06-14T03:01:05;15.10;99.90
44069;DHT22;29738;51.234;5.484;2023-06-14T03:03:33;15.00;99.90
44069;DHT22;29738;51.234;5.484;2023-06-14T03:05:58;15.00;99.90
44069;DHT22;29738;51.234;5.484;2023-06-14T03:08:26;14.90;99.90
44069;DHT22;29738;51.234;5.484;2023-06-14T03:10:54;14.90;99.90
44069;DHT22;29738;51.234;5.484;2023-06-14T03:13:21;14.70;99.90
44069;DHT22;29738;51.234;5.484;2023-06-14T03:15:47;14.80;99.90
44069;DHT22;29738;51.234;5.484;2023-06-14T03:18:15;14.70;99.90
44069;DHT22;29738;51.234;5.484;2023-06-14T03:20:41;14.80;99.90
44069;DHT22;29738;51.234;5.484;2023-06-14T03:23:08;14.80;99.90
44069;DHT22;29738;51.234;5.484;2023-06-14T03:25:33;14.60;99.90
44069;DHT22;29738;51.234;5.484;2023-06-14T03:28:01;14.60;99.90
44069;DHT22;29738;51.234;5.484;2023-06-14T03:30:27;14.60;99.90
44069;DHT22;29738;51.234;5.484;2023-06-14T03:32:52;14.60;99.90
44069;DHT22;29738;51.234;5.484;2023-06-14T03:35:21;14.60;99.90
44069;DHT22;29738;51.234;5.484;2023-06-14T03:37:48;14.70;99.90
44069;DHT22;29738;51.234;5.484;2023-06-14T03:40:18;14.70;99.90
44069;DHT22;29738;51.234;5.484;2023-06-14T03:42:45;14.80;99.90
44069;DHT22;29738;51.234;5.484;2023-06-14T03:45:20;14.70;99.90
44069;DHT22;29738;51.234;5.484;2023-06-14T03:47:46;14.70;99.90
44069;DHT22;29738;51.234;5.484;2023-06-14T04:31:40;18.50;99.90
44069;DHT22;29738;51.234;5.484;2023-06-14T05:20:42;17.50;99.90
44069;DHT22;29738;51.234;5.484;2023-06-14T05:23:11;17.40;99.90
44069;DHT22;29738;51.234;5.484;2023-06-14T05:25:58;17.60;99.90
44069;DHT22;29738;51.234;5.484;2023-06-14T05:28:25;17.70;99.90
44069;DHT22;29738;51.234;5.484;2023-06-14T05:30:54;17.80;99.90
44069;DHT22;29738;51.234;5.484;2023-06-14T05:33:21;17.90;99.90
44069;DHT22;29738;51.234;5.484;2023-06-14T05:35:46;17.90;99.90
44069;DHT22;29738;51.234;5.484;2023-06-14T05:38:16;18.20;99.90
44069;DHT22;29738;51.234;5.484;2023-06-14T05:40:46;18.20;99.90
44069;DHT22;29738;51.234;5.484;2023-06-14T05:43:16;18.30;99.90
44069;DHT22;29738;51.234;5.484;2023-06-14T05:45:42;18.50;99.90
44069;DHT22;29738;51.234;5.484;2023-06-14T05:48:11;18.30;99.90
44069;DHT22;29738;51.234;5.484;2023-06-14T05:50:37;18.30;99.90
44069;DHT22;29738;51.234;5.484;2023-06-14T05:53:03;18.30;99.90
44069;DHT22;29738;51.234;5.484;2023-06-14T05:55:29;18.50;99.90
44069;DHT22;29738;51.234;5.484;2023-06-14T05:57:55;18.60;99.90
44069;DHT22;29738;51.234;5.484;2023-06-14T09:08:51;23.90;91.10
44069;DHT22;29738;51.234;5.484;2023-06-14T09:11:17;23.90;91.70
44069;DHT22;29738;51.234;5.484;2023-06-14T09:13:46;23.80;92.50
44069;DHT22;29738;51.234;5.484;2023-06-14T09:16:12;23.80;92.20
44069;DHT22;29738;51.234;5.484;2023-06-14T09:18:39;24.00;92.30
44069;DHT22;29738;51.234;5.484;2023-06-14T09:34:04;23.80;90.50
44069;DHT22;29738;51.234;5.484;2023-06-14T09:36:37;24.00;90.90
44069;DHT22;29738;51.234;5.484;2023-06-14T09:39:04;24.00;90.00
44069;DHT22;29738;51.234;5.484;2023-06-14T09:41:33;24.10;91.20
44069;DHT22;29738;51.234;5.484;2023-06-14T09:44:04;24.20;88.30
44069;DHT22;29738;51.234;5.484;2023-06-14T09:46:31;23.90;90.00
44069;DHT22;29738;51.234;5.484;2023-06-14T09:48:57;24.20;87.70
44069;DHT22;29738;51.234;5.484;2023-06-14T09:51:24;24.20;87.00
44069;DHT22;29738;51.234;5.484;2023-06-14T09:53:53;24.10;83.40
44069;DHT22;29738;51.234;5.484;2023-06-14T09:56:35;23.80;83.10
44069;DHT22;29738;51.234;5.484;2023-06-14T09:59:03;23.80;82.60
44069;DHT22;29738;51.234;5.484;2023-06-14T10:01:33;23.80;82.30
44069;DHT22;29738;51.234;5.484;2023-06-14T10:04:05;23.90;81.50
44069;DHT22;29738;51.234;5.484;2023-06-14T10:06:32;24.10;81.60
44069;DHT22;29738;51.234;5.484;2023-06-14T10:09:02;24.10;81.20
44069;DHT22;29738;51.234;5.484;2023-06-14T13:10:10;25.60;78.10
44069;DHT22;29738;51.234;5.484;2023-06-14T13:12:36;25.30;77.90
44069;DHT22;29738;51.234;5.484;2023-06-14T13:15:02;25.40;79.20
44069;DHT22;29738;51.234;5.484;2023-06-14T13:17:29;25.30;78.20
44069;DHT22;29738;51.234;5.484;2023-06-14T13:19:55;25.40;80.10
44069;DHT22;29738;51.234;5.484;2023-06-14T18:33:36;25.50;77.90
44069;DHT22;29738;51.234;5.484;2023-06-14T18:36:02;25.30;77.70
44069;DHT22;29738;51.234;5.484;2023-06-14T20:33:34;20.70;90.60
44069;DHT22;29738;51.234;5.484;2023-06-14T20:36:02;20.70;91.10
44069;DHT22;29738;51.234;5.484;2023-06-14T20:38:28;20.60;90.90
44069;DHT22;29738;51.234;5.484;2023-06-14T20:40:54;20.40;91.50
44069;DHT22;29738;51.234;5.484;2023-06-14T20:43:25;20.50;91.30
44069;DHT22;29738;51.234;5.484;2023-06-14T20:45:52;20.50;91.20
44069;DHT22;29738;51.234;5.484;2023-06-14T20:48:21;20.40;91.50
44069;DHT22;29738;51.234;5.484;2023-06-14T20:50:51;20.40;91.50
44069;DHT22;29738;51.234;5.484;2023-06-14T20:53:20;20.40;91.60
44069;DHT22;29738;51.234;5.484;2023-06-14T20:55:46;20.20;91.50
44069;DHT22;29738;51.234;5.484;2023-06-14T20:58:12;20.30;91.70
44069;DHT22;29738;51.234;5.484;2023-06-14T21:00:38;20.20;92.00
44069;DHT22;29738;51.234;5.484;2023-06-14T21:03:07;20.10;92.00
44069;DHT22;29738;51.234;5.484;2023-06-14T21:05:33;20.10;92.30
44069;DHT22;29738;51.234;5.484;2023-06-14T21:13:12;20.00;92.20
44069;DHT22;29738;51.234;5.484;2023-06-14T21:15:58;20.00;92.40
44069;DHT22;29738;51.234;5.484;2023-06-14T21:18:24;20.10;92.50
44069;DHT22;29738;51.234;5.484;2023-06-14T21:20:50;19.80;92.40
44069;DHT22;29738;51.234;5.484;2023-06-14T21:23:17;19.90;92.50
44069;DHT22;29738;51.234;5.484;2023-06-14T21:25:43;19.90;92.50
44069;DHT22;29738;51.234;5.484;2023-06-14T21:28:11;19.90;92.50
44069;DHT22;29738;51.234;5.484;2023-06-14T21:30:40;19.90;92.50
44069;DHT22;29738;51.234;5.484;2023-06-14T21:33:07;19.80;92.70
44069;DHT22;29738;51.234;5.484;2023-06-14T21:40:43;19.40;93.30
44069;DHT22;29738;51.234;5.484;2023-06-14T21:43:12;19.40;93.60
44069;DHT22;29738;51.234;5.484;2023-06-14T21:45:39;19.20;94.30
44069;DHT22;29738;51.234;5.484;2023-06-14T22:01:01;18.90;95.50
44069;DHT22;29738;51.234;5.484;2023-06-14T22:03:27;18.90;95.50
44069;DHT22;29738;51.234;5.484;2023-06-14T22:05:56;18.80;95.50
44069;DHT22;29738;51.234;5.484;2023-06-14T22:08:23;18.80;95.60
44069;DHT22;29738;51.234;5.484;2023-06-14T22:10:51;18.70;96.10
44069;DHT22;29738;51.234;5.484;2023-06-14T22:13:18;18.80;96.40
44069;DHT22;29738;51.234;5.484;2023-06-14T22:15:44;18.70;97.10
44069;DHT22;29738;51.234;5.484;2023-06-14T22:18:11;18.60;99.00
44069;DHT22;29738;51.234;5.484;2023-06-14T22:20:36;18.50;99.00
44069;DHT22;29738;51.234;5.484;2023-06-14T22:23:04;18.50;99.90
